sensor_id;sensor_type;location;lat;lon;timestamp;temperature;humidity
22850;DHT22;11591;44.792;10.358;2022-11-15T00:00:56;9.40;99.90
22850;DHT22;11591;44.792;10.358;2022-11-15T00:03:40;9.40;99.90
22850;DHT22;11591;44.792;10.358;2022-11-15T00:06:25;9.30;99.90
22850;DHT22;11591;44.792;10.358;2022-11-15T00:09:10;9.30;99.90
22850;DHT22;11591;44.792;10.358;2022-11-15T00:11:54;9.30;99.90
22850;DHT22;11591;44.792;10.358;2022-11-15T00:14:38;9.30;99.90
22850;DHT22;11591;44.792;10.358;2022-11-15T00:17:23;9.30;99.90
22850;DHT22;11591;44.792;10.358;2022-11-15T00:20:07;9.30;99.90
22850;DHT22;11591;44.792;10.358;2022-11-15T00:22:52;9.30;99.90
22850;DHT22;11591;44.792;10.358;2022-11-15T00:25:36;9.30;99.90
22850;DHT22;11591;44.792;10.358;2022-11-15T00:28:20;9.20;99.90
22850;DHT22;11591;44.792;10.358;2022-11-15T00:31:07;9.20;99.90
22850;DHT22;11591;44.792;10.358;2022-11-15T00:33:52;9.20;99.90
22850;DHT22;11591;44.792;10.358;2022-11-15T00:36:36;9.20;99.90
22850;DHT22;11591;44.792;10.358;2022-11-15T00:39:21;9.20;99.90
22850;DHT22;11591;44.792;10.358;2022-11-15T00:42:05;9.20;99.90
22850;DHT22;11591;44.792;10.358;2022-11-15T00:44:49;9.20;99.90
22850;DHT22;11591;44.792;10.358;2022-11-15T00:47:33;9.20;99.90
22850;DHT22;11591;44.792;10.358;2022-11-15T00:50:18;9.20;99.90
22850;DHT22;11591;44.792;10.358;2022-11-15T00:53:02;9.10;99.90
22850;DHT22;11591;44.792;10.358;2022-11-15T00:55:46;9.10;99.90
22850;DHT22;11591;44.792;10.358;2022-11-15T00:58:30;9.10;99.90
22850;DHT22;11591;44.792;10.358;2022-11-15T01:01:14;9.10;99.90
22850;DHT22;11591;44.792;10.358;2022-11-15T01:03:58;9.10;99.90
22850;DHT22;11591;44.792;10.358;2022-11-15T01:06:42;9.10;99.90
22850;DHT22;11591;44.792;10.358;2022-11-15T01:09:27;9.00;99.90
22850;DHT22;11591;44.792;10.358;2022-11-15T01:12:11;9.00;99.90
22850;DHT22;11591;44.792;10.358;2022-11-15T01:14:56;9.00;99.90
22850;DHT22;11591;44.792;10.358;2022-11-15T01:17:40;9.00;99.90
22850;DHT22;11591;44.792;10.358;2022-11-15T01:20:24;9.00;99.90
22850;DHT22;11591;44.792;10.358;2022-11-15T01:23:09;9.00;99.90
22850;DHT22;11591;44.792;10.358;2022-11-15T01:25:59;9.00;99.90
22850;DHT22;11591;44.792;10.358;2022-11-15T01:28:43;9.00;99.90
22850;DHT22;11591;44.792;10.358;2022-11-15T01:31:27;9.00;99.90
22850;DHT22;11591;44.792;10.358;2022-11-15T01:34:11;9.10;99.90
22850;DHT22;11591;44.792;10.358;2022-11-15T01:36:56;9.10;99.90
22850;DHT22;11591;44.792;10.358;2022-11-15T01:39:40;9.10;99.90
22850;DHT22;11591;44.792;10.358;2022-11-15T01:42:24;9.10;99.90
22850;DHT22;11591;44.792;10.358;2022-11-15T01:45:14;9.10;99.90
22850;DHT22;11591;44.792;10.358;2022-11-15T01:47:59;9.10;99.90
22850;DHT22;11591;44.792;10.358;2022-11-15T01:50:44;9.10;99.90
22850;DHT22;11591;44.792;10.358;2022-11-15T01:53:30;9.10;99.90
22850;DHT22;11591;44.792;10.358;2022-11-15T01:56:20;9.10;99.90
22850;DHT22;11591;44.792;10.358;2022-11-15T01:59:08;9.10;99.90
22850;DHT22;11591;44.792;10.358;2022-11-15T02:01:53;9.10;99.90
22850;DHT22;11591;44.792;10.358;2022-11-15T02:04:45;9.10;99.90
22850;DHT22;11591;44.792;10.358;2022-11-15T02:07:31;9.10;99.90
22850;DHT22;11591;44.792;10.358;2022-11-15T02:10:22;9.10;99.90
22850;DHT22;11591;44.792;10.358;2022-11-15T02:13:07;9.20;99.90
22850;DHT22;11591;44.792;10.358;2022-11-15T02:16:14;9.20;99.90
22850;DHT22;11591;44.792;10.358;2022-11-15T02:22:36;9.20;99.90
22850;DHT22;11591;44.792;10.358;2022-11-15T02:29:05;9.20;99.90
22850;DHT22;11591;44.792;10.358;2022-11-15T02:32:01;9.20;99.90
22850;DHT22;11591;44.792;10.358;2022-11-15T02:35:01;9.20;99.90
22850;DHT22;11591;44.792;10.358;2022-11-15T02:37:56;9.20;99.90
22850;DHT22;11591;44.792;10.358;2022-11-15T02:43:36;9.30;99.90
22850;DHT22;11591;44.792;10.358;2022-11-15T02:47:09;9.30;99.90
22850;DHT22;11591;44.792;10.358;2022-11-15T02:50:01;9.30;99.90
22850;DHT22;11591;44.792;10.358;2022-11-15T02:52:47;9.40;99.90
22850;DHT22;11591;44.792;10.358;2022-11-15T02:55:38;9.40;99.90
22850;DHT22;11591;44.792;10.358;2022-11-15T03:02:05;9.30;99.90
22850;DHT22;11591;44.792;10.358;2022-11-15T03:04:48;9.30;99.90
22850;DHT22;11591;44.792;10.358;2022-11-15T03:13:39;9.40;99.90
22850;DHT22;11591;44.792;10.358;2022-11-15T03:22:03;9.40;99.90
22850;DHT22;11591;44.792;10.358;2022-11-15T03:24:54;9.40;99.90
22850;DHT22;11591;44.792;10.358;2022-11-15T03:27:42;9.40;99.90
22850;DHT22;11591;44.792;10.358;2022-11-15T03:30:28;9.40;99.90
22850;DHT22;11591;44.792;10.358;2022-11-15T03:33:14;9.40;99.90
22850;DHT22;11591;44.792;10.358;2022-11-15T03:35:59;9.50;99.90
22850;DHT22;11591;44.792;10.358;2022-11-15T03:38:44;9.50;99.90
22850;DHT22;11591;44.792;10.358;2022-11-15T03:41:57;9.60;99.90
22850;DHT22;11591;44.792;10.358;2022-11-15T03:44:57;9.60;99.90
22850;DHT22;11591;44.792;10.358;2022-11-15T03:47:48;9.60;99.90
22850;DHT22;11591;44.792;10.358;2022-11-15T03:50:33;9.60;99.90
22850;DHT22;11591;44.792;10.358;2022-11-15T03:53:18;9.60;99.90
22850;DHT22;11591;44.792;10.358;2022-11-15T03:56:03;9.60;99.90
22850;DHT22;11591;44.792;10.358;2022-11-15T03:58:48;9.60;99.90
22850;DHT22;11591;44.792;10.358;2022-11-15T04:01:32;9.60;99.90
22850;DHT22;11591;44.792;10.358;2022-11-15T04:04:16;9.60;99.90
22850;DHT22;11591;44.792;10.358;2022-11-15T04:07:00;9.60;99.90
22850;DHT22;11591;44.792;10.358;2022-11-15T04:09:44;9.60;99.90
22850;DHT22;11591;44.792;10.358;2022-11-15T04:12:46;9.60;99.90
22850;DHT22;11591;44.792;10.358;2022-11-15T04:15:31;9.60;99.90
22850;DHT22;11591;44.792;10.358;2022-11-15T04:18:16;9.60;99.90
22850;DHT22;11591;44.792;10.358;2022-11-15T04:21:00;9.60;99.90
22850;DHT22;11591;44.792;10.358;2022-11-15T04:24:03;9.60;99.90
22850;DHT22;11591;44.792;10.358;2022-11-15T04:26:55;9.60;99.90
22850;DHT22;11591;44.792;10.358;2022-11-15T04:29:40;9.70;99.90
22850;DHT22;11591;44.792;10.358;2022-11-15T04:32:24;9.70;99.90
22850;DHT22;11591;44.792;10.358;2022-11-15T04:35:08;9.70;99.90
22850;DHT22;11591;44.792;10.358;2022-11-15T04:37:54;9.90;99.90
22850;DHT22;11591;44.792;10.358;2022-11-15T04:40:38;9.80;99.90
22850;DHT22;11591;44.792;10.358;2022-11-15T04:43:23;9.80;99.90
22850;DHT22;11591;44.792;10.358;2022-11-15T04:46:07;9.70;99.90
22850;DHT22;11591;44.792;10.358;2022-11-15T04:48:52;9.70;99.90
22850;DHT22;11591;44.792;10.358;2022-11-15T04:51:36;9.80;99.90
22850;DHT22;11591;44.792;10.358;2022-11-15T04:54:20;9.80;99.90
22850;DHT22;11591;44.792;10.358;2022-11-15T04:57:05;9.80;99.90
22850;DHT22;11591;44.792;10.358;2022-11-15T04:59:49;9.80;99.90
22850;DHT22;11591;44.792;10.358;2022-11-15T05:02:34;9.90;99.90
22850;DHT22;11591;44.792;10.358;2022-11-15T05:05:37;9.90;99.90
22850;DHT22;11591;44.792;10.358;2022-11-15T05:08:21;9.90;99.90
22850;DHT22;11591;44.792;10.358;2022-11-15T05:11:06;9.90;99.90
22850;DHT22;11591;44.792;10.358;2022-11-15T05:13:50;9.90;99.90
22850;DHT22;11591;44.792;10.358;2022-11-15T05:16:34;9.90;99.90
22850;DHT22;11591;44.792;10.358;2022-11-15T05:19:19;9.90;99.90
22850;DHT22;11591;44.792;10.358;2022-11-15T05:22:03;9.90;99.90
22850;DHT22;11591;44.792;10.358;2022-11-15T05:24:47;9.90;99.90
22850;DHT22;11591;44.792;10.358;2022-11-15T05:27:32;9.90;99.90
22850;DHT22;11591;44.792;10.358;2022-11-15T05:30:17;9.90;99.90
22850;DHT22;11591;44.792;10.358;2022-11-15T05:33:01;9.90;99.90
22850;DHT22;11591;44.792;10.358;2022-11-15T05:35:55;10.00;99.90
22850;DHT22;11591;44.792;10.358;2022-11-15T05:38:42;9.90;99.90
22850;DHT22;11591;44.792;10.358;2022-11-15T05:41:50;10.00;99.90
22850;DHT22;11591;44.792;10.358;2022-11-15T05:44:37;10.00;99.90
22850;DHT22;11591;44.792;10.358;2022-11-15T05:47:25;10.00;99.90
22850;DHT22;11591;44.792;10.358;2022-11-15T05:50:13;10.00;99.90
22850;DHT22;11591;44.792;10.358;2022-11-15T05:52:58;10.00;99.90
22850;DHT22;11591;44.792;10.358;2022-11-15T05:55:43;9.90;99.90
22850;DHT22;11591;44.792;10.358;2022-11-15T05:58:27;9.90;99.90
22850;DHT22;11591;44.792;10.358;2022-11-15T06:01:12;9.90;99.90
22850;DHT22;11591;44.792;10.358;2022-11-15T06:03:56;9.90;99.90
22850;DHT22;11591;44.792;10.358;2022-11-15T06:06:41;9.90;99.90
22850;DHT22;11591;44.792;10.358;2022-11-15T06:09:25;9.90;99.90
22850;DHT22;11591;44.792;10.358;2022-11-15T06:12:09;9.90;99.90
22850;DHT22;11591;44.792;10.358;2022-11-15T06:14:53;10.00;99.90
22850;DHT22;11591;44.792;10.358;2022-11-15T06:17:37;10.00;99.90
22850;DHT22;11591;44.792;10.358;2022-11-15T06:20:21;10.00;99.90
22850;DHT22;11591;44.792;10.358;2022-11-15T06:23:06;10.00;99.90
22850;DHT22;11591;44.792;10.358;2022-11-15T06:25:50;10.10;99.90
22850;DHT22;11591;44.792;10.358;2022-11-15T06:28:34;10.00;99.90
22850;DHT22;11591;44.792;10.358;2022-11-15T06:31:18;10.10;99.90
22850;DHT22;11591;44.792;10.358;2022-11-15T06:34:03;10.10;99.90
22850;DHT22;11591;44.792;10.358;2022-11-15T06:36:48;10.10;99.90
22850;DHT22;11591;44.792;10.358;2022-11-15T06:39:32;10.20;99.90
22850;DHT22;11591;44.792;10.358;2022-11-15T06:42:16;10.10;99.90
22850;DHT22;11591;44.792;10.358;2022-11-15T06:45:00;10.10;99.90
22850;DHT22;11591;44.792;10.358;2022-11-15T06:47:45;10.20;99.90
22850;DHT22;11591;44.792;10.358;2022-11-15T06:50:30;10.20;99.90
22850;DHT22;11591;44.792;10.358;2022-11-15T06:53:14;10.20;99.90
22850;DHT22;11591;44.792;10.358;2022-11-15T06:56:03;10.10;99.90
22850;DHT22;11591;44.792;10.358;2022-11-15T06:58:48;10.20;99.90
22850;DHT22;11591;44.792;10.358;2022-11-15T07:01:32;10.20;99.90
22850;DHT22;11591;44.792;10.358;2022-11-15T07:04:17;10.20;99.90
22850;DHT22;11591;44.792;10.358;2022-11-15T07:07:01;10.20;99.90
22850;DHT22;11591;44.792;10.358;2022-11-15T07:09:45;10.20;99.90
22850;DHT22;11591;44.792;10.358;2022-11-15T07:12:29;10.20;99.90
22850;DHT22;11591;44.792;10.358;2022-11-15T07:15:14;10.20;99.90
22850;DHT22;11591;44.792;10.358;2022-11-15T07:18:02;10.20;99.90
22850;DHT22;11591;44.792;10.358;2022-11-15T07:20:47;10.20;99.90
22850;DHT22;11591;44.792;10.358;2022-11-15T07:23:31;10.20;99.90
22850;DHT22;11591;44.792;10.358;2022-11-15T07:26:15;10.30;99.90
22850;DHT22;11591;44.792;10.358;2022-11-15T07:29:00;10.30;99.90
22850;DHT22;11591;44.792;10.358;2022-11-15T07:31:44;10.20;99.90
22850;DHT22;11591;44.792;10.358;2022-11-15T07:34:28;10.20;99.90
22850;DHT22;11591;44.792;10.358;2022-11-15T07:37:12;10.30;99.90
22850;DHT22;11591;44.792;10.358;2022-11-15T07:39:56;10.20;99.90
22850;DHT22;11591;44.792;10.358;2022-11-15T07:42:41;10.30;99.90
22850;DHT22;11591;44.792;10.358;2022-11-15T07:45:44;10.30;99.90
22850;DHT22;11591;44.792;10.358;2022-11-15T07:48:29;10.30;99.90
22850;DHT22;11591;44.792;10.358;2022-11-15T07:51:15;10.40;99.90
22850;DHT22;11591;44.792;10.358;2022-11-15T07:54:00;10.30;99.90
22850;DHT22;11591;44.792;10.358;2022-11-15T07:56:45;10.40;99.90
22850;DHT22;11591;44.792;10.358;2022-11-15T07:59:29;10.50;99.90
22850;DHT22;11591;44.792;10.358;2022-11-15T08:02:13;10.50;99.90
22850;DHT22;11591;44.792;10.358;2022-11-15T08:05:00;10.50;99.90
22850;DHT22;11591;44.792;10.358;2022-11-15T08:07:44;10.60;99.90
22850;DHT22;11591;44.792;10.358;2022-11-15T08:10:29;10.50;99.90
22850;DHT22;11591;44.792;10.358;2022-11-15T08:13:13;10.50;99.90
22850;DHT22;11591;44.792;10.358;2022-11-15T08:15:59;10.60;99.90
22850;DHT22;11591;44.792;10.358;2022-11-15T08:18:44;10.50;99.90
22850;DHT22;11591;44.792;10.358;2022-11-15T08:21:28;10.50;99.90
22850;DHT22;11591;44.792;10.358;2022-11-15T08:24:12;10.50;99.90
22850;DHT22;11591;44.792;10.358;2022-11-15T08:26:56;10.50;99.90
22850;DHT22;11591;44.792;10.358;2022-11-15T08:29:42;10.60;99.90
22850;DHT22;11591;44.792;10.358;2022-11-15T08:32:27;10.60;99.90
22850;DHT22;11591;44.792;10.358;2022-11-15T08:35:11;10.60;99.90
22850;DHT22;11591;44.792;10.358;2022-11-15T08:37:56;10.60;99.90
22850;DHT22;11591;44.792;10.358;2022-11-15T08:40:40;10.60;99.90
22850;DHT22;11591;44.792;10.358;2022-11-15T08:43:25;10.70;99.90
22850;DHT22;11591;44.792;10.358;2022-11-15T08:46:12;10.70;99.90
22850;DHT22;11591;44.792;10.358;2022-11-15T08:48:56;10.70;99.90
22850;DHT22;11591;44.792;10.358;2022-11-15T08:51:41;10.70;99.90
22850;DHT22;11591;44.792;10.358;2022-11-15T08:54:25;10.70;99.90
22850;DHT22;11591;44.792;10.358;2022-11-15T08:57:10;10.70;99.90
22850;DHT22;11591;44.792;10.358;2022-11-15T08:59:55;10.80;99.90
22850;DHT22;11591;44.792;10.358;2022-11-15T09:02:40;10.80;99.90
22850;DHT22;11591;44.792;10.358;2022-11-15T09:05:24;10.80;99.90
22850;DHT22;11591;44.792;10.358;2022-11-15T09:08:08;10.80;99.90
22850;DHT22;11591;44.792;10.358;2022-11-15T09:10:53;10.80;99.90
22850;DHT22;11591;44.792;10.358;2022-11-15T09:13:37;10.80;99.90
22850;DHT22;11591;44.792;10.358;2022-11-15T09:16:21;10.90;99.90
22850;DHT22;11591;44.792;10.358;2022-11-15T09:19:06;10.90;99.90
22850;DHT22;11591;44.792;10.358;2022-11-15T09:21:50;10.80;99.90
22850;DHT22;11591;44.792;10.358;2022-11-15T09:24:35;10.90;99.90
22850;DHT22;11591;44.792;10.358;2022-11-15T09:27:19;10.90;99.90
22850;DHT22;11591;44.792;10.358;2022-11-15T09:30:04;10.90;99.90
22850;DHT22;11591;44.792;10.358;2022-11-15T09:32:48;11.00;99.90
22850;DHT22;11591;44.792;10.358;2022-11-15T09:35:32;11.00;99.90
22850;DHT22;11591;44.792;10.358;2022-11-15T09:38:17;11.00;99.90
22850;DHT22;11591;44.792;10.358;2022-11-15T09:47:10;11.10;
22850;DHT22;11591;44.792;10.358;2022-11-15T09:50:01;11.10;99.90
22850;DHT22;11591;44.792;10.358;2022-11-15T09:52:34;11.10;99.90
22850;DHT22;11591;44.792;10.358;2022-11-15T09:55:01;11.00;99.90
22850;DHT22;11591;44.792;10.358;2022-11-15T09:57:38;10.90;99.90
22850;DHT22;11591;44.792;10.358;2022-11-15T10:05:20;11.10;99.90
22850;DHT22;11591;44.792;10.358;2022-11-15T10:10:51;11.10;99.90
22850;DHT22;11591;44.792;10.358;2022-11-15T10:13:35;11.20;99.90
22850;DHT22;11591;44.792;10.358;2022-11-15T10:16:38;11.20;99.90
22850;DHT22;11591;44.792;10.358;2022-11-15T10:24:44;11.10;99.90
22850;DHT22;11591;44.792;10.358;2022-11-15T10:27:13;11.00;99.90
22850;DHT22;11591;44.792;10.358;2022-11-15T10:29:47;10.90;99.90
22850;DHT22;11591;44.792;10.358;2022-11-15T10:32:16;10.90;99.90
22850;DHT22;11591;44.792;10.358;2022-11-15T10:34:43;11.00;99.90
22850;DHT22;11591;44.792;10.358;2022-11-15T10:37:09;11.00;99.90
22850;DHT22;11591;44.792;10.358;2022-11-15T10:39:35;11.10;99.90
22850;DHT22;11591;44.792;10.358;2022-11-15T10:42:27;11.20;99.90
22850;DHT22;11591;44.792;10.358;2022-11-15T10:44:54;11.20;99.90
22850;DHT22;11591;44.792;10.358;2022-11-15T10:47:29;11.30;99.90
22850;DHT22;11591;44.792;10.358;2022-11-15T10:50:25;11.30;99.90
22850;DHT22;11591;44.792;10.358;2022-11-15T10:52:51;11.40;99.90
22850;DHT22;11591;44.792;10.358;2022-11-15T10:57:57;11.40;99.90
22850;DHT22;11591;44.792;10.358;2022-11-15T11:00:30;11.30;99.90
22850;DHT22;11591;44.792;10.358;2022-11-15T11:03:03;11.00;99.90
22850;DHT22;11591;44.792;10.358;2022-11-15T11:05:40;10.90;99.90
22850;DHT22;11591;44.792;10.358;2022-11-15T11:08:21;10.90;99.90
22850;DHT22;11591;44.792;10.358;2022-11-15T11:11:00;10.80;99.90
22850;DHT22;11591;44.792;10.358;2022-11-15T11:13:35;10.70;99.90
22850;DHT22;11591;44.792;10.358;2022-11-15T11:24:44;10.60;99.90
22850;DHT22;11591;44.792;10.358;2022-11-15T11:33:31;10.60;99.90
22850;DHT22;11591;44.792;10.358;2022-11-15T11:49:21;10.50;99.90
22850;DHT22;11591;44.792;10.358;2022-11-15T11:54:55;10.60;99.90
22850;DHT22;11591;44.792;10.358;2022-11-15T12:00:25;10.50;99.90
22850;DHT22;11591;44.792;10.358;2022-11-15T12:08:50;10.40;99.90
22850;DHT22;11591;44.792;10.358;2022-11-15T12:10:58;10.50;99.90
22850;DHT22;11591;44.792;10.358;2022-11-15T12:13:27;10.40;99.90
22850;DHT22;11591;44.792;10.358;2022-11-15T12:16:22;10.50;99.90
22850;DHT22;11591;44.792;10.358;2022-11-15T12:18:53;10.50;99.90
22850;DHT22;11591;44.792;10.358;2022-11-15T12:21:25;10.50;99.90
22850;DHT22;11591;44.792;10.358;2022-11-15T12:23:58;10.50;99.90
22850;DHT22;11591;44.792;10.358;2022-11-15T12:26:31;10.50;99.90
22850;DHT22;11591;44.792;10.358;2022-11-15T12:29:05;10.50;99.90
22850;DHT22;11591;44.792;10.358;2022-11-15T12:34:03;10.60;99.90
22850;DHT22;11591;44.792;10.358;2022-11-15T12:36:42;10.60;99.90
22850;DHT22;11591;44.792;10.358;2022-11-15T12:39:12;10.70;99.90
22850;DHT22;11591;44.792;10.358;2022-11-15T12:41:43;10.80;99.90
22850;DHT22;11591;44.792;10.358;2022-11-15T12:44:55;10.80;99.90
22850;DHT22;11591;44.792;10.358;2022-11-15T12:47:26;10.70;99.90
22850;DHT22;11591;44.792;10.358;2022-11-15T12:49:53;10.60;99.90
22850;DHT22;11591;44.792;10.358;2022-11-15T12:52:19;10.60;99.90
22850;DHT22;11591;44.792;10.358;2022-11-15T12:55:29;10.60;99.90
22850;DHT22;11591;44.792;10.358;2022-11-15T12:57:54;10.50;99.90
22850;DHT22;11591;44.792;10.358;2022-11-15T13:02:45;10.60;99.90
22850;DHT22;11591;44.792;10.358;2022-11-15T13:13:07;10.40;99.90
22850;DHT22;11591;44.792;10.358;2022-11-15T13:15:52;10.30;99.90
22850;DHT22;11591;44.792;10.358;2022-11-15T13:18:39;10.30;99.90
22850;DHT22;11591;44.792;10.358;2022-11-15T13:21:20;10.30;99.90
22850;DHT22;11591;44.792;10.358;2022-11-15T13:24:05;10.40;99.90
22850;DHT22;11591;44.792;10.358;2022-11-15T13:26:38;10.50;99.90
22850;DHT22;11591;44.792;10.358;2022-11-15T13:29:12;10.60;99.90
22850;DHT22;11591;44.792;10.358;2022-11-15T13:31:43;10.50;99.90
22850;DHT22;11591;44.792;10.358;2022-11-15T13:34:27;10.40;99.90
22850;DHT22;11591;44.792;10.358;2022-11-15T13:36:54;10.30;99.90
22850;DHT22;11591;44.792;10.358;2022-11-15T13:39:28;10.30;99.90
22850;DHT22;11591;44.792;10.358;2022-11-15T13:41:54;10.30;99.90
22850;DHT22;11591;44.792;10.358;2022-11-15T13:44:23;10.30;99.90
22850;DHT22;11591;44.792;10.358;2022-11-15T13:47:07;10.30;99.90
22850;DHT22;11591;44.792;10.358;2022-11-15T13:49:37;10.30;99.90
22850;DHT22;11591;44.792;10.358;2022-11-15T13:52:06;10.30;99.90
22850;DHT22;11591;44.792;10.358;2022-11-15T13:54:47;10.30;99.90
22850;DHT22;11591;44.792;10.358;2022-11-15T13:57:21;10.30;99.90
22850;DHT22;11591;44.792;10.358;2022-11-15T13:59:56;10.20;99.90
22850;DHT22;11591;44.792;10.358;2022-11-15T14:02:28;10.30;99.90
22850;DHT22;11591;44.792;10.358;2022-11-15T14:07:59;10.40;99.90
22850;DHT22;11591;44.792;10.358;2022-11-15T14:10:31;10.40;99.90
22850;DHT22;11591;44.792;10.358;2022-11-15T14:12:57;10.40;99.90
22850;DHT22;11591;44.792;10.358;2022-11-15T14:15:36;10.40;99.90
22850;DHT22;11591;44.792;10.358;2022-11-15T14:18:03;10.40;99.90
22850;DHT22;11591;44.792;10.358;2022-11-15T14:20:30;10.40;99.90
22850;DHT22;11591;44.792;10.358;2022-11-15T14:23:24;10.30;99.90
22850;DHT22;11591;44.792;10.358;2022-11-15T14:25:55;10.40;99.90
22850;DHT22;11591;44.792;10.358;2022-11-15T14:30:52;10.30;99.90
22850;DHT22;11591;44.792;10.358;2022-11-15T14:33:30;10.40;99.90
22850;DHT22;11591;44.792;10.358;2022-11-15T14:36:02;10.40;99.90
22850;DHT22;11591;44.792;10.358;2022-11-15T14:38:28;10.40;99.90
22850;DHT22;11591;44.792;10.358;2022-11-15T14:40:54;10.30;99.90
22850;DHT22;11591;44.792;10.358;2022-11-15T14:43:21;10.30;99.90
22850;DHT22;11591;44.792;10.358;2022-11-15T14:45:47;10.40;99.90
22850;DHT22;11591;44.792;10.358;2022-11-15T14:48:13;10.40;99.90
22850;DHT22;11591;44.792;10.358;2022-11-15T14:50:39;10.40;99.90
22850;DHT22;11591;44.792;10.358;2022-11-15T14:53:05;10.50;99.90
22850;DHT22;11591;44.792;10.358;2022-11-15T14:55:34;10.50;99.90
22850;DHT22;11591;44.792;10.358;2022-11-15T14:58:05;10.60;99.90
22850;DHT22;11591;44.792;10.358;2022-11-15T15:00:34;10.60;99.90
22850;DHT22;11591;44.792;10.358;2022-11-15T15:03:01;10.50;99.90
22850;DHT22;11591;44.792;10.358;2022-11-15T15:05:37;10.30;99.90
22850;DHT22;11591;44.792;10.358;2022-11-15T15:08:04;10.30;99.90
22850;DHT22;11591;44.792;10.358;2022-11-15T15:10:36;10.30;99.90
22850;DHT22;11591;44.792;10.358;2022-11-15T15:13:03;10.20;99.90
22850;DHT22;11591;44.792;10.358;2022-11-15T15:15:36;10.30;99.90
22850;DHT22;11591;44.792;10.358;2022-11-15T15:18:03;10.30;99.90
22850;DHT22;11591;44.792;10.358;2022-11-15T15:20:31;10.40;99.90
22850;DHT22;11591;44.792;10.358;2022-11-15T15:22:57;10.40;99.90
22850;DHT22;11591;44.792;10.358;2022-11-15T15:25:28;10.50;99.90
22850;DHT22;11591;44.792;10.358;2022-11-15T15:27:55;10.40;99.90
22850;DHT22;11591;44.792;10.358;2022-11-15T15:30:22;10.40;99.90
22850;DHT22;11591;44.792;10.358;2022-11-15T15:32:48;10.40;99.90
22850;DHT22;11591;44.792;10.358;2022-11-15T15:35:15;10.40;99.90
22850;DHT22;11591;44.792;10.358;2022-11-15T15:37:42;10.40;99.90
22850;DHT22;11591;44.792;10.358;2022-11-15T15:40:19;10.40;99.90
22850;DHT22;11591;44.792;10.358;2022-11-15T15:42:46;10.50;99.90
22850;DHT22;11591;44.792;10.358;2022-11-15T15:45:13;10.50;99.90
22850;DHT22;11591;44.792;10.358;2022-11-15T15:47:40;10.60;99.90
22850;DHT22;11591;44.792;10.358;2022-11-15T15:50:33;10.60;99.90
22850;DHT22;11591;44.792;10.358;2022-11-15T15:53:01;10.70;99.90
22850;DHT22;11591;44.792;10.358;2022-11-15T15:55:27;10.70;99.90
22850;DHT22;11591;44.792;10.358;2022-11-15T15:57:53;10.70;99.90
22850;DHT22;11591;44.792;10.358;2022-11-15T16:00:20;10.70;99.90
22850;DHT22;11591;44.792;10.358;2022-11-15T16:02:46;10.70;99.90
22850;DHT22;11591;44.792;10.358;2022-11-15T16:05:12;10.80;99.90
22850;DHT22;11591;44.792;10.358;2022-11-15T16:07:39;10.80;99.90
22850;DHT22;11591;44.792;10.358;2022-11-15T16:10:23;10.80;99.90
22850;DHT22;11591;44.792;10.358;2022-11-15T16:12:53;10.80;99.90
22850;DHT22;11591;44.792;10.358;2022-11-15T16:15:20;10.80;99.90
22850;DHT22;11591;44.792;10.358;2022-11-15T16:17:52;10.80;99.90
22850;DHT22;11591;44.792;10.358;2022-11-15T16:20:40;10.80;99.90
22850;DHT22;11591;44.792;10.358;2022-11-15T16:23:18;10.80;99.90
22850;DHT22;11591;44.792;10.358;2022-11-15T16:25:53;10.80;99.90
22850;DHT22;11591;44.792;10.358;2022-11-15T16:28:22;10.80;99.90
22850;DHT22;11591;44.792;10.358;2022-11-15T16:30:49;10.80;99.90
22850;DHT22;11591;44.792;10.358;2022-11-15T16:33:24;10.80;99.90
22850;DHT22;11591;44.792;10.358;2022-11-15T16:35:50;10.80;99.90
22850;DHT22;11591;44.792;10.358;2022-11-15T16:38:16;10.80;99.90
22850;DHT22;11591;44.792;10.358;2022-11-15T16:40:42;10.80;99.90
22850;DHT22;11591;44.792;10.358;2022-11-15T16:43:09;10.80;99.90
22850;DHT22;11591;44.792;10.358;2022-11-15T16:45:35;10.80;99.90
22850;DHT22;11591;44.792;10.358;2022-11-15T16:48:01;10.80;99.90
22850;DHT22;11591;44.792;10.358;2022-11-15T16:50:30;10.80;99.90
22850;DHT22;11591;44.792;10.358;2022-11-15T16:52:58;10.80;99.90
22850;DHT22;11591;44.792;10.358;2022-11-15T16:55:26;10.80;99.90
22850;DHT22;11591;44.792;10.358;2022-11-15T16:57:53;10.80;99.90
22850;DHT22;11591;44.792;10.358;2022-11-15T17:00:20;10.90;99.90
22850;DHT22;11591;44.792;10.358;2022-11-15T17:02:47;10.80;99.90
22850;DHT22;11591;44.792;10.358;2022-11-15T17:05:15;10.80;99.90
22850;DHT22;11591;44.792;10.358;2022-11-15T17:07:41;10.80;99.90
22850;DHT22;11591;44.792;10.358;2022-11-15T17:10:09;10.90;99.90
22850;DHT22;11591;44.792;10.358;2022-11-15T17:12:36;10.90;99.90
22850;DHT22;11591;44.792;10.358;2022-11-15T17:15:03;10.90;99.90
22850;DHT22;11591;44.792;10.358;2022-11-15T17:17:30;10.80;99.90
22850;DHT22;11591;44.792;10.358;2022-11-15T17:19:56;10.80;99.90
22850;DHT22;11591;44.792;10.358;2022-11-15T17:22:22;10.80;99.90
22850;DHT22;11591;44.792;10.358;2022-11-15T17:24:48;10.80;99.90
22850;DHT22;11591;44.792;10.358;2022-11-15T17:27:13;10.80;99.90
22850;DHT22;11591;44.792;10.358;2022-11-15T17:29:40;10.80;99.90
22850;DHT22;11591;44.792;10.358;2022-11-15T17:32:06;10.80;99.90
22850;DHT22;11591;44.792;10.358;2022-11-15T17:34:32;10.80;99.90
22850;DHT22;11591;44.792;10.358;2022-11-15T17:36:58;10.80;99.90
22850;DHT22;11591;44.792;10.358;2022-11-15T17:39:24;10.80;99.90
22850;DHT22;11591;44.792;10.358;2022-11-15T17:41:50;10.70;99.90
22850;DHT22;11591;44.792;10.358;2022-11-15T17:44:16;10.70;99.90
22850;DHT22;11591;44.792;10.358;2022-11-15T17:46:42;10.80;99.90
22850;DHT22;11591;44.792;10.358;2022-11-15T17:49:08;10.70;99.90
22850;DHT22;11591;44.792;10.358;2022-11-15T17:51:34;10.70;99.90
22850;DHT22;11591;44.792;10.358;2022-11-15T17:54:00;10.80;99.90
22850;DHT22;11591;44.792;10.358;2022-11-15T17:56:27;10.80;99.90
22850;DHT22;11591;44.792;10.358;2022-11-15T17:58:57;10.70;99.90
22850;DHT22;11591;44.792;10.358;2022-11-15T18:01:24;10.70;99.90
22850;DHT22;11591;44.792;10.358;2022-11-15T18:03:50;10.70;99.90
22850;DHT22;11591;44.792;10.358;2022-11-15T18:06:17;10.70;99.90
22850;DHT22;11591;44.792;10.358;2022-11-15T18:08:45;10.70;99.90
22850;DHT22;11591;44.792;10.358;2022-11-15T18:11:12;10.70;99.90
22850;DHT22;11591;44.792;10.358;2022-11-15T18:13:40;10.70;99.90
22850;DHT22;11591;44.792;10.358;2022-11-15T18:16:11;10.70;99.90
22850;DHT22;11591;44.792;10.358;2022-11-15T18:18:37;10.70;99.90
22850;DHT22;11591;44.792;10.358;2022-11-15T18:21:10;10.70;99.90